createdAt,value
2019-02-11T00:02:09.536Z,61.75
2019-02-11T00:04:37.176Z,61.36
2019-02-11T00:07:04.812Z,61.11
2019-02-11T00:09:32.461Z,61.25
2019-02-11T00:12:00.116Z,61.61
2019-02-11T00:14:27.767Z,60.83
2019-02-11T00:16:55.397Z,61.25
2019-02-11T00:19:23.053Z,60.11
2019-02-11T00:21:50.698Z,60.35
2019-02-11T00:24:18.358Z,60.41
2019-02-11T00:26:46.002Z,60.29
2019-02-11T00:29:13.650Z,60.29
2019-02-11T00:31:41.294Z,60.47
2019-02-11T00:34:08.933Z,60.16
2019-02-11T00:36:36.573Z,60.48
2019-02-11T00:39:05.132Z,60.71
2019-02-11T00:41:32.864Z,60.63
2019-02-11T00:44:00.500Z,61.04
2019-02-11T00:46:28.141Z,60.46
2019-02-11T00:48:55.783Z,60.38
2019-02-11T00:51:23.512Z,61.33
2019-02-11T00:53:51.163Z,61.30
2019-02-11T00:56:18.813Z,61.46
2019-02-11T00:58:46.459Z,61.65
2019-02-11T01:01:14.112Z,61.53
2019-02-11T01:03:41.752Z,61.75
2019-02-11T01:06:09.400Z,61.83
2019-02-11T01:08:37.038Z,62.23
2019-02-11T01:11:04.680Z,62.47
2019-02-11T01:13:32.314Z,63.02
2019-02-11T01:15:59.970Z,63.69
2019-02-11T01:18:27.615Z,63.76
2019-02-11T01:20:55.270Z,64.61
2019-02-11T01:23:22.910Z,65.01
2019-02-11T01:25:50.566Z,65.40
2019-02-11T01:28:18.202Z,65.35
2019-02-11T01:30:45.848Z,66.32
2019-02-11T01:33:13.485Z,65.69
2019-02-11T01:35:41.134Z,66.32
2019-02-11T01:38:08.776Z,67.17
2019-02-11T01:40:36.425Z,66.99
2019-02-11T01:43:04.061Z,67.96
2019-02-11T01:45:31.700Z,68.37
2019-02-11T01:47:59.341Z,69.26
2019-02-11T01:50:26.987Z,68.99
2019-02-11T01:52:54.629Z,69.59
2019-02-11T01:55:22.273Z,69.61
2019-02-11T01:57:49.924Z,70.54
2019-02-11T02:00:17.575Z,70.85
2019-02-11T02:02:45.209Z,70.53
2019-02-11T02:05:12.867Z,71.19
2019-02-11T02:07:40.506Z,71.83
2019-02-11T02:10:08.203Z,73.13
2019-02-11T02:12:35.839Z,74.76
2019-02-11T02:15:03.485Z,76.31
2019-02-11T02:17:31.134Z,77.33
2019-02-11T02:19:58.770Z,78.18
2019-02-11T02:22:26.422Z,77.89
2019-02-11T02:24:54.055Z,78.82
2019-02-11T02:27:21.710Z,79.40
2019-02-11T02:29:49.355Z,79.55
2019-02-11T02:32:16.993Z,80.49
2019-02-11T02:34:44.631Z,80.09
2019-02-11T02:37:12.268Z,80.21
2019-02-11T02:39:39.908Z,80.57
2019-02-11T02:42:07.564Z,80.78
2019-02-11T02:44:35.205Z,81.73
2019-02-11T02:47:02.855Z,80.80
2019-02-11T02:49:30.495Z,80.83
2019-02-11T02:51:58.140Z,80.52
2019-02-11T02:54:25.776Z,81.16
2019-02-11T02:56:53.422Z,81.14
2019-02-11T02:59:21.059Z,80.97
2019-02-11T03:01:48.706Z,81.55
2019-02-11T03:04:16.357Z,81.13
2019-02-11T03:06:44.006Z,81.65
2019-02-11T03:09:11.632Z,82.36
2019-02-11T03:11:39.272Z,82.66
2019-02-11T03:14:06.912Z,81.83
2019-02-11T03:16:34.552Z,82.38
2019-02-11T03:19:02.196Z,82.80
2019-02-11T03:21:29.848Z,82.11
2019-02-11T03:23:57.482Z,82.32
2019-02-11T03:26:25.129Z,82.58
2019-02-11T03:28:52.772Z,82.66
2019-02-11T03:31:20.424Z,82.56
2019-02-11T03:33:48.142Z,81.94
2019-02-11T03:36:15.791Z,82.63
2019-02-11T03:38:43.422Z,82.42
2019-02-11T03:41:11.073Z,83.12
2019-02-11T03:43:38.714Z,83.20
2019-02-11T03:46:06.347Z,83.14
2019-02-11T03:48:34.008Z,83.04
2019-02-11T03:51:01.658Z,83.59
2019-02-11T03:53:29.303Z,82.95
2019-02-11T03:55:57.008Z,83.02
2019-02-11T03:58:24.693Z,83.71
2019-02-11T04:00:52.339Z,83.52
2019-02-11T04:03:19.981Z,83.93
2019-02-11T04:05:47.626Z,83.62
2019-02-11T04:08:15.269Z,83.82
2019-02-11T04:10:42.906Z,83.80
2019-02-11T04:13:10.546Z,84.57
2019-02-11T04:15:38.376Z,84.27
2019-02-11T04:18:06.008Z,84.09
2019-02-11T04:20:33.654Z,84.48
2019-02-11T04:23:01.308Z,84.03
2019-02-11T04:25:28.950Z,84.41
2019-02-11T04:27:56.592Z,84.71
2019-02-11T04:30:24.228Z,84.61
2019-02-11T04:32:51.962Z,84.30
2019-02-11T04:35:19.686Z,84.27
2019-02-11T04:37:47.329Z,84.23
2019-02-11T04:40:14.975Z,83.73
2019-02-11T04:42:42.621Z,83.35
2019-02-11T04:45:10.272Z,82.64
2019-02-11T04:47:37.972Z,82.51
2019-02-11T04:50:05.671Z,81.42
2019-02-11T04:52:33.317Z,80.72
2019-02-11T04:55:00.957Z,80.89
2019-02-11T04:57:28.606Z,79.98
2019-02-11T04:59:56.244Z,79.85
2019-02-11T05:02:23.902Z,79.98
2019-02-11T05:04:51.540Z,79.06
2019-02-11T05:07:19.182Z,79.54
2019-02-11T05:09:46.823Z,80.54
2019-02-11T05:12:14.470Z,80.84
2019-02-11T05:14:43.865Z,82.12
2019-02-11T05:17:11.466Z,81.85
2019-02-11T05:19:39.118Z,81.45
2019-02-11T05:22:06.797Z,81.09
2019-02-11T05:24:34.428Z,81.62
2019-02-11T05:27:02.094Z,80.48
2019-02-11T05:29:29.746Z,79.98
2019-02-11T05:31:57.387Z,79.56
2019-02-11T05:34:25.050Z,80.11
2019-02-11T05:36:52.872Z,80.48
2019-02-11T05:39:20.505Z,80.64
2019-02-11T05:41:48.152Z,81.01
2019-02-11T05:44:15.794Z,80.46
2019-02-11T05:46:43.444Z,79.55
2019-02-11T05:49:11.094Z,79.29
2019-02-11T05:51:38.732Z,78.63
2019-02-11T05:54:06.402Z,78.92
2019-02-11T05:56:34.054Z,78.56
2019-02-11T05:59:01.690Z,78.92
2019-02-11T06:01:29.331Z,79.08
2019-02-11T06:03:56.988Z,78.10
2019-02-11T06:06:24.625Z,77.79
2019-02-11T06:08:52.265Z,78.71
2019-02-11T06:11:19.916Z,79.17
2019-02-11T06:13:47.571Z,79.20
2019-02-11T06:16:15.205Z,79.43
2019-02-11T06:18:42.854Z,79.32
2019-02-11T06:21:10.499Z,78.84
2019-02-11T06:23:38.137Z,79.29
2019-02-11T06:26:05.785Z,79.87
2019-02-11T06:28:33.433Z,79.26
2019-02-11T06:31:01.211Z,78.95
2019-02-11T06:33:28.856Z,79.91
2019-02-11T06:35:56.510Z,80.32
2019-02-11T06:38:24.165Z,80.57
2019-02-11T06:40:51.802Z,80.56
2019-02-11T06:43:19.455Z,80.87
2019-02-11T06:45:47.100Z,80.76
2019-02-11T06:48:14.741Z,81.20
2019-02-11T06:50:42.380Z,81.36
2019-02-11T06:53:10.025Z,81.39
2019-02-11T06:55:37.666Z,81.71
2019-02-11T06:58:05.329Z,81.72
2019-02-11T07:00:32.974Z,81.42
2019-02-11T07:03:00.638Z,81.50
2019-02-11T07:05:28.273Z,81.11
2019-02-11T07:07:55.916Z,80.99
2019-02-11T07:10:23.558Z,80.39
2019-02-11T07:12:51.292Z,80.18
2019-02-11T07:15:22.069Z,80.43
2019-02-11T07:17:48.304Z,81.04
2019-02-11T07:20:15.942Z,81.48
2019-02-11T07:22:43.589Z,81.63
2019-02-11T07:25:11.229Z,81.16
2019-02-11T07:27:38.910Z,80.90
2019-02-11T07:30:06.605Z,81.11
2019-02-11T07:32:34.245Z,80.68
2019-02-11T07:35:01.903Z,80.43
2019-02-11T07:37:29.546Z,80.11
2019-02-11T07:39:57.197Z,79.92
2019-02-11T07:42:46.777Z,80.70
2019-02-11T07:45:29.894Z,80.58
2019-02-11T07:47:52.110Z,80.26
2019-02-11T07:50:19.756Z,80.17
2019-02-11T07:52:47.427Z,80.41
2019-02-11T07:55:15.057Z,80.25
2019-02-11T07:57:42.710Z,79.57
2019-02-11T08:00:10.442Z,79.29
2019-02-11T08:02:38.092Z,79.00
2019-02-11T08:05:05.731Z,78.53
2019-02-11T08:07:33.387Z,78.45
2019-02-11T08:10:01.054Z,78.46
2019-02-11T08:12:28.695Z,77.93
2019-02-11T08:14:56.341Z,77.26
2019-02-11T08:17:23.981Z,77.48
2019-02-11T08:19:51.627Z,76.50
2019-02-11T08:22:19.257Z,76.23
2019-02-11T08:24:46.901Z,76.24
2019-02-11T08:27:14.540Z,75.89
2019-02-11T08:29:42.209Z,75.45
2019-02-11T08:32:09.917Z,75.41
2019-02-11T08:34:37.564Z,75.54
2019-02-11T08:37:05.203Z,75.33
2019-02-11T08:39:32.866Z,75.83
2019-02-11T08:42:00.504Z,75.60
2019-02-11T08:44:28.158Z,75.68
2019-02-11T08:46:55.798Z,75.71
2019-02-11T08:49:23.440Z,74.78
2019-02-11T08:51:51.094Z,74.73
2019-02-11T08:54:18.744Z,73.98
2019-02-11T08:56:46.398Z,74.27
2019-02-11T08:59:14.052Z,74.02
2019-02-11T09:01:41.697Z,73.57
2019-02-11T09:04:09.334Z,74.01
2019-02-11T09:06:36.972Z,72.98
2019-02-11T09:09:05.581Z,73.07
2019-02-11T09:11:33.223Z,72.41
2019-02-11T09:14:00.874Z,71.94
2019-02-11T09:16:28.507Z,72.09
2019-02-11T09:18:56.153Z,72.30
2019-02-11T09:21:23.794Z,72.38
2019-02-11T09:23:51.432Z,71.67
2019-02-11T09:26:19.167Z,72.00
2019-02-11T09:28:46.804Z,71.88
2019-02-11T09:31:14.455Z,71.60
2019-02-11T09:33:42.089Z,71.71
2019-02-11T09:36:09.733Z,71.80
2019-02-11T09:38:37.421Z,71.92
2019-02-11T09:41:05.058Z,70.96
2019-02-11T09:43:32.696Z,70.18
2019-02-11T09:46:03.884Z,70.13
2019-02-11T09:48:29.690Z,70.14
2019-02-11T09:50:57.342Z,69.43
2019-02-11T09:53:24.973Z,69.13
2019-02-11T09:55:52.624Z,68.68
2019-02-11T09:58:20.280Z,67.94
2019-02-11T10:00:47.922Z,68.27
2019-02-11T10:03:15.559Z,67.80
2019-02-11T10:05:43.214Z,68.07
2019-02-11T10:08:10.856Z,68.04
2019-02-11T10:10:38.503Z,67.60
2019-02-11T10:13:06.148Z,67.74
2019-02-11T10:15:33.796Z,67.13
2019-02-11T10:18:01.426Z,67.30
2019-02-11T10:20:29.064Z,67.37
2019-02-11T10:22:56.708Z,66.67
2019-02-11T10:25:24.359Z,67.27
2019-02-11T10:27:51.997Z,67.17
2019-02-11T10:30:19.645Z,65.42
2019-02-11T10:32:47.294Z,65.67
2019-02-11T10:35:14.945Z,64.87
2019-02-11T10:37:42.592Z,64.39
2019-02-11T10:40:10.241Z,63.79
2019-02-11T10:42:37.873Z,63.46
2019-02-11T10:45:05.516Z,64.16
2019-02-11T10:47:33.154Z,63.39
2019-02-11T10:50:00.819Z,64.35
2019-02-11T10:52:28.461Z,64.29
2019-02-11T10:54:56.128Z,65.29
2019-02-11T10:57:23.770Z,64.84
2019-02-11T10:59:51.414Z,65.01
2019-02-11T11:02:19.054Z,65.12
2019-02-11T11:04:46.695Z,65.75
2019-02-11T11:07:14.333Z,65.10
2019-02-11T11:09:42.014Z,65.08
2019-02-11T11:12:09.662Z,65.35
2019-02-11T11:14:37.314Z,64.72
2019-02-11T11:17:04.956Z,64.86
2019-02-11T11:19:32.597Z,64.89
2019-02-11T11:22:00.239Z,65.11
2019-02-11T11:24:27.897Z,64.73
2019-02-11T11:26:55.537Z,64.84
2019-02-11T11:29:23.225Z,64.57
2019-02-11T11:31:50.905Z,64.05
2019-02-11T11:34:18.545Z,64.27
2019-02-11T11:36:46.195Z,64.44
2019-02-11T11:39:19.185Z,65.16
2019-02-11T11:41:46.834Z,64.25
2019-02-11T11:44:14.483Z,64.48
2019-02-11T11:46:47.108Z,64.74
2019-02-11T11:49:11.476Z,64.31
2019-02-11T11:51:40.628Z,64.48
2019-02-11T11:54:08.447Z,64.06
2019-02-11T11:56:36.090Z,63.86
2019-02-11T11:59:03.737Z,63.41
2019-02-11T12:01:31.400Z,63.44
2019-02-11T12:03:59.112Z,63.78
2019-02-11T12:06:26.759Z,63.44
2019-02-11T12:08:54.395Z,63.85
2019-02-11T12:11:22.044Z,64.39
2019-02-11T12:13:49.767Z,65.19
2019-02-11T12:16:17.405Z,65.07
2019-02-11T12:18:45.193Z,65.46
2019-02-11T12:21:12.880Z,67.56
2019-02-11T12:23:40.515Z,68.12
2019-02-11T12:26:08.162Z,68.51
2019-02-11T12:28:35.797Z,70.45
2019-02-11T12:31:03.437Z,72.36
2019-02-11T12:33:31.108Z,76.54
2019-02-11T12:35:58.812Z,76.02
2019-02-11T12:38:26.480Z,75.19
2019-02-11T12:40:54.193Z,73.82
2019-02-11T12:43:21.827Z,71.92
2019-02-11T12:45:49.485Z,72.12
2019-02-11T12:48:17.138Z,71.07
2019-02-11T12:50:44.870Z,69.97
2019-02-11T12:53:12.584Z,68.68
2019-02-11T12:55:40.243Z,68.10
2019-02-11T12:58:07.881Z,67.23
2019-02-11T13:00:35.552Z,66.95
2019-02-11T13:03:03.534Z,66.46
2019-02-11T13:05:44.290Z,66.06
2019-02-11T13:08:00.550Z,66.35
2019-02-11T13:10:28.285Z,65.34
2019-02-11T13:12:56.043Z,64.08
2019-02-11T13:15:56.824Z,63.62
2019-02-11T13:17:53.117Z,65.31
2019-02-11T13:20:20.969Z,63.97
2019-02-11T13:22:48.671Z,63.56
2019-02-11T13:25:16.438Z,62.39
2019-02-11T13:27:44.341Z,62.42
2019-02-11T13:30:12.136Z,62.84
2019-02-11T13:32:39.922Z,63.40
2019-02-11T13:35:07.591Z,67.01
2019-02-11T13:37:35.252Z,67.86
2019-02-11T13:40:02.898Z,69.12
2019-02-11T13:42:30.543Z,67.19
2019-02-11T13:44:58.182Z,66.56
2019-02-11T13:47:25.841Z,66.17
2019-02-11T13:49:53.490Z,64.88
2019-02-11T13:52:21.224Z,64.62
2019-02-11T13:54:48.944Z,64.40
2019-02-11T13:57:16.597Z,64.22
2019-02-11T13:59:44.247Z,63.26
2019-02-11T14:02:11.970Z,62.53
2019-02-11T14:04:39.615Z,62.83
2019-02-11T14:07:07.355Z,62.60
2019-02-11T14:09:35.063Z,61.56
2019-02-11T14:12:02.721Z,61.58
2019-02-11T14:14:30.360Z,62.14
2019-02-11T14:16:58.007Z,61.70
2019-02-11T14:19:25.738Z,61.49
2019-02-11T14:21:53.394Z,61.34
2019-02-11T14:24:21.039Z,60.68
2019-02-11T14:26:48.698Z,61.11
2019-02-11T14:29:16.426Z,60.68
2019-02-11T14:31:44.068Z,59.76
2019-02-11T14:34:11.744Z,59.40
2019-02-11T14:36:42.967Z,58.37
2019-02-11T14:39:08.805Z,58.61
2019-02-11T14:41:36.456Z,57.09
2019-02-11T14:44:04.180Z,56.15
2019-02-11T14:46:31.831Z,57.10
2019-02-11T14:48:59.641Z,57.34
2019-02-11T14:51:27.271Z,57.37
2019-02-11T14:53:54.918Z,57.90
2019-02-11T14:56:22.578Z,57.09
2019-02-11T14:58:50.213Z,58.09
2019-02-11T15:01:17.870Z,57.44
2019-02-11T15:03:45.506Z,57.25
2019-02-11T15:06:13.167Z,57.48
2019-02-11T15:08:40.800Z,57.70
2019-02-11T15:11:08.438Z,56.97
2019-02-11T15:13:36.093Z,58.02
2019-02-11T15:16:03.812Z,57.61
2019-02-11T15:18:34.397Z,58.06
2019-02-11T15:21:00.818Z,58.01
2019-02-11T15:23:28.482Z,58.29
2019-02-11T15:25:56.118Z,58.17
2019-02-11T15:28:23.764Z,57.92
2019-02-11T15:30:51.431Z,58.15
2019-02-11T15:33:19.077Z,58.73
2019-02-11T15:35:46.724Z,59.17
2019-02-11T15:38:14.372Z,59.18
2019-02-11T15:40:42.201Z,59.66
2019-02-11T15:43:09.866Z,59.24
2019-02-11T15:45:37.513Z,60.38
2019-02-11T15:48:05.154Z,60.19
2019-02-11T15:50:32.793Z,60.52
2019-02-11T15:53:00.461Z,60.82
2019-02-11T15:55:28.111Z,61.06
2019-02-11T15:57:55.937Z,60.98
2019-02-11T16:00:23.581Z,61.72
2019-02-11T16:02:51.899Z,61.48
2019-02-11T16:05:19.770Z,61.78
2019-02-11T16:07:47.426Z,61.98
2019-02-11T16:10:15.075Z,62.53
2019-02-11T16:12:42.738Z,62.79
2019-02-11T16:15:10.379Z,63.37
2019-02-11T16:17:38.022Z,62.88
2019-02-11T16:20:05.661Z,62.57
2019-02-11T16:22:33.312Z,62.27
2019-02-11T16:25:00.970Z,61.89
2019-02-11T16:27:28.729Z,62.09
2019-02-11T16:29:56.465Z,61.71
2019-02-11T16:32:24.129Z,61.69
2019-02-11T16:34:51.784Z,61.23
2019-02-11T16:37:19.429Z,61.54
2019-02-11T16:39:47.069Z,61.63
2019-02-11T16:42:14.729Z,61.97
2019-02-11T16:44:42.377Z,61.89
2019-02-11T16:47:10.024Z,62.16
2019-02-11T16:49:37.680Z,62.83
2019-02-11T16:52:05.339Z,63.14
2019-02-11T16:54:32.993Z,63.67
2019-02-11T16:57:00.649Z,64.11
2019-02-11T16:59:28.311Z,65.00
2019-02-11T17:01:55.961Z,65.92
2019-02-11T17:04:23.612Z,66.37
2019-02-11T17:06:51.267Z,66.75
2019-02-11T17:09:18.918Z,67.29
2019-02-11T17:11:46.562Z,67.84
2019-02-11T17:14:14.211Z,68.06
2019-02-11T17:16:41.863Z,68.39
2019-02-11T17:19:09.880Z,68.91
2019-02-11T17:21:37.653Z,69.40
2019-02-11T17:24:05.305Z,69.47
2019-02-11T17:26:32.962Z,70.14
2019-02-11T17:29:00.611Z,70.33
2019-02-11T17:31:28.261Z,70.77
2019-02-11T17:33:55.930Z,70.79
2019-02-11T17:36:23.578Z,71.16
2019-02-11T17:38:51.229Z,71.39
2019-02-11T17:41:18.873Z,71.99
2019-02-11T17:43:46.521Z,72.00
2019-02-11T17:46:14.175Z,72.63
2019-02-11T17:48:41.821Z,73.00
2019-02-11T17:51:09.521Z,73.05
2019-02-11T17:53:37.169Z,73.33
2019-02-11T17:56:04.826Z,73.69
2019-02-11T17:58:32.465Z,74.10
2019-02-11T18:01:01.111Z,73.77
2019-02-11T18:03:28.754Z,74.22
2019-02-11T18:05:56.401Z,74.26
2019-02-11T18:08:24.069Z,74.39
2019-02-11T18:10:51.721Z,74.29
2019-02-11T18:13:19.358Z,74.24
2019-02-11T18:15:47.027Z,74.37
2019-02-11T18:18:14.741Z,74.04
2019-02-11T18:20:42.376Z,74.21
2019-02-11T18:23:10.050Z,73.71
2019-02-11T18:25:37.695Z,73.92
2019-02-11T18:28:05.358Z,73.74
2019-02-11T18:30:32.999Z,73.88
2019-02-11T18:33:00.658Z,73.80
2019-02-11T18:35:28.301Z,74.07
2019-02-11T18:37:55.958Z,73.97
2019-02-11T18:40:23.607Z,74.10
2019-02-11T18:42:51.282Z,74.04
2019-02-11T18:45:19.009Z,74.32
2019-02-11T18:47:46.675Z,74.03
2019-02-11T18:50:14.327Z,74.33
2019-02-11T18:52:41.965Z,74.19
2019-02-11T18:55:09.625Z,73.75
2019-02-11T18:57:37.280Z,73.77
2019-02-11T19:00:04.924Z,73.91
2019-02-11T19:02:32.572Z,73.52
2019-02-11T19:05:00.232Z,73.50
2019-02-11T19:07:27.859Z,73.43
2019-02-11T19:09:55.539Z,73.54
2019-02-11T19:12:23.171Z,73.24
2019-02-11T19:14:50.833Z,73.27
2019-02-11T19:17:18.486Z,73.36
2019-02-11T19:19:46.141Z,73.38
2019-02-11T19:22:13.786Z,73.33
2019-02-11T19:24:41.428Z,73.57
2019-02-11T19:27:09.091Z,73.47
2019-02-11T19:29:36.737Z,73.73
2019-02-11T19:32:04.384Z,73.67
2019-02-11T19:34:32.042Z,73.29
2019-02-11T19:36:59.690Z,73.30
2019-02-11T19:39:27.342Z,72.82
2019-02-11T19:41:55.001Z,72.77
2019-02-11T19:44:22.655Z,72.37
2019-02-11T19:46:50.301Z,72.55
2019-02-11T19:49:17.966Z,72.12
2019-02-11T19:51:45.606Z,72.08
2019-02-11T19:54:13.268Z,71.34
2019-02-11T19:56:40.909Z,71.37
2019-02-11T19:59:08.574Z,70.53
2019-02-11T20:01:36.221Z,70.70
2019-02-11T20:04:07.575Z,70.23
2019-02-11T20:06:33.281Z,70.46
2019-02-11T20:09:00.967Z,70.36
2019-02-11T20:11:28.624Z,70.01
2019-02-11T20:13:56.291Z,69.93
2019-02-11T20:16:23.932Z,69.82
2019-02-11T20:18:51.582Z,69.96
2019-02-11T20:21:19.229Z,70.06
2019-02-11T20:23:47.011Z,70.26
2019-02-11T20:26:14.809Z,70.05
2019-02-11T20:28:42.460Z,69.83
2019-02-11T20:31:10.098Z,69.84
2019-02-11T20:33:37.750Z,70.44
2019-02-11T20:36:05.400Z,70.40
2019-02-11T20:38:33.060Z,70.07
2019-02-11T20:41:00.700Z,70.42
2019-02-11T20:43:28.348Z,70.59
2019-02-11T20:45:56.021Z,70.27
2019-02-11T20:48:23.665Z,70.58
2019-02-11T20:50:51.313Z,70.62
2019-02-11T20:53:18.994Z,70.66
2019-02-11T20:55:46.645Z,70.92
2019-02-11T20:58:14.288Z,70.74
2019-02-11T21:00:41.938Z,70.31
2019-02-11T21:03:09.656Z,70.54
2019-02-11T21:05:37.293Z,70.21
2019-02-11T21:08:04.948Z,70.44
2019-02-11T21:10:32.601Z,70.09
2019-02-11T21:13:00.252Z,70.22
2019-02-11T21:15:27.913Z,70.14
2019-02-11T21:17:55.568Z,70.26
2019-02-11T21:20:23.226Z,70.00
2019-02-11T21:22:50.874Z,69.78
2019-02-11T21:25:18.523Z,69.89
2019-02-11T21:27:46.171Z,69.60
2019-02-11T21:30:13.825Z,69.46
2019-02-11T21:32:41.476Z,69.47
2019-02-11T21:35:09.127Z,69.07
2019-02-11T21:37:36.769Z,69.16
2019-02-11T21:40:04.429Z,68.76
2019-02-11T21:42:32.079Z,69.26
2019-02-11T21:44:59.722Z,69.41
2019-02-11T21:47:27.382Z,69.11
2019-02-11T21:49:55.040Z,69.19
2019-02-11T21:52:22.673Z,69.56
2019-02-11T21:54:50.325Z,69.57
2019-02-11T21:57:17.981Z,69.90
2019-02-11T21:59:45.621Z,69.72
2019-02-11T22:02:13.262Z,69.95
2019-02-11T22:04:40.913Z,69.84
2019-02-11T22:07:08.552Z,70.34
2019-02-11T22:09:36.214Z,69.88
2019-02-11T22:12:03.876Z,70.46
2019-02-11T22:14:31.519Z,70.65
2019-02-11T22:16:59.179Z,70.93
2019-02-11T22:19:26.826Z,71.22
2019-02-11T22:21:54.476Z,71.26
2019-02-11T22:24:22.113Z,71.67
2019-02-11T22:26:49.772Z,72.07
2019-02-11T22:29:17.420Z,72.22
2019-02-11T22:31:45.069Z,72.38
2019-02-11T22:34:12.719Z,72.95
2019-02-11T22:36:40.369Z,72.59
2019-02-11T22:39:08.025Z,72.94
2019-02-11T22:41:35.688Z,72.56
2019-02-11T22:44:03.370Z,72.73
2019-02-11T22:46:31.079Z,72.67
2019-02-11T22:48:58.717Z,72.22
2019-02-11T22:51:26.369Z,72.53
2019-02-11T22:53:54.016Z,72.33
2019-02-11T22:56:21.664Z,72.55
2019-02-11T22:58:49.327Z,72.69
2019-02-11T23:01:17.167Z,72.11
2019-02-11T23:03:44.805Z,71.48
2019-02-11T23:06:12.454Z,71.64
2019-02-11T23:08:40.102Z,71.05
2019-02-11T23:11:07.749Z,70.79
2019-02-11T23:13:35.403Z,70.95
2019-02-11T23:16:03.060Z,70.22
2019-02-11T23:18:30.702Z,70.66
2019-02-11T23:20:58.354Z,70.57
2019-02-11T23:23:25.992Z,70.02
2019-02-11T23:25:53.646Z,70.12
2019-02-11T23:28:21.300Z,69.93
2019-02-11T23:30:48.944Z,69.58
2019-02-11T23:33:16.603Z,68.94
2019-02-11T23:35:44.262Z,68.26
2019-02-11T23:38:11.906Z,68.62
2019-02-11T23:40:39.557Z,68.15
2019-02-11T23:43:07.207Z,67.94
2019-02-11T23:45:34.858Z,68.02
2019-02-11T23:48:03.721Z,67.86
2019-02-11T23:50:31.647Z,67.08
2019-02-11T23:52:59.291Z,66.56
2019-02-11T23:55:26.944Z,66.39
2019-02-11T23:57:54.592Z,66.73
